EW1799 Weather Reports


Display with metric or nautical units.
time (UTC)temp
F
wind
direction
speed
MPH
gust
MPH
rain 1hr
in
rain 24hr
in
rain mn
in
humidity
%
barometer
mb
20210917230043 62 107 0.0 2.0 0.00 0.00 0.00 46 1015.7
20210917224619 62 170 0.0 5.0 0.00 0.00 0.00 46 1015.6
20210917223057 62 90 0.0 5.0 0.00 0.00 0.00 45 1015.8
20210917221613 62 180 0.0 4.0 0.00 0.00 0.00 45 1015.6
20210917220052 62 59 0.0 5.0 0.00 0.00 0.00 45 1015.7
20210917214532 61 173 0.0 1.0 0.00 0.00 0.00 45 1015.6
20210917213058 62 180 1.0 6.0 0.00 0.00 0.00 45 1015.5
20210917211601 61 161 0.0 4.0 0.00 0.00 0.00 46 1015.4
20210917210035 60 96 0.0 5.0 0.00 0.00 0.00 48 1015.5
20210917204558 60 178 0.0 3.0 0.00 0.00 0.00 48 1015.5
20210917203042 58 167 0.0 3.0 0.00 0.00 0.00 50 1015.4
20210917201537 58 98 1.0 4.0 0.00 0.00 0.00 51 1015.5
20210917200120 58 150 0.0 4.0 0.00 0.00 0.00 51 1015.5
20210917194551 58 156 0.0 5.0 0.00 0.00 0.00 51 1015.5
20210917193031 58 88 1.0 5.0 0.00 0.00 0.00 51 1015.4
20210917191552 57 198 1.0 4.0 0.00 0.00 0.00 52 1015.5
20210917190037 57 183 1.0 5.0 0.00 0.00 0.00 52 1015.4
20210917184606 55 67 0.0 2.0 0.00 0.00 0.00 55 1015.5
20210917183051 55 78 0.0 7.0 0.00 0.00 0.00 55 1015.5
20210917181524 54 156 0.0 3.0 0.00 0.00 0.00 55 1015.7
20210917180031 54 174 0.0 4.0 0.00 0.00 0.00 57 1015.9
20210917174532 53 162 0.0 3.0 0.00 0.00 0.00 59 1015.9
20210917173058 51 101 0.0 4.0 0.00 0.00 0.00 61 1015.7
20210917171537 50 38 0.0 0.0 0.00 0.00 0.00 62 1015.7
20210917170016 49 157 0.0 0.0 0.00 0.00 0.00 65 1015.7
20210917164502 48 300 0.0 0.0 0.00 0.00 0.00 67 1015.6
20210917163251 47 239 0.0 3.0 0.00 0.00 0.00 71 1015.6
20210917161641 44 199 0.0 6.0 0.00 0.00 0.00 74 1015.6
20210917160136 44 120 0.0 0.0 0.00 0.00 0.00 77 1015.4
20210917154635 43 112 0.0 0.0 0.00 0.00 0.00 78 1015.4
20210917153126 42 95 0.0 0.0 0.00 0.00 0.00 80 1015.3
20210917151631 42 44 0.0 0.0 0.00 0.00 0.00 82 1015.1
20210917150047 41 44 0.0 0.0 0.00 0.00 0.00 83 1015.1
20210917144641 40 44 0.0 0.0 0.00 0.00 0.00 83 1015.0
20210917143053 40 44 0.0 1.0 0.00 0.00 0.00 84 1014.8
20210917141555 40 44 0.0 0.0 0.00 0.00 0.00 84 1014.7
20210917140236 40 49 0.0 0.0 0.00 0.00 0.00 84 1014.5
20210917134553 39 49 0.0 0.0 0.00 0.00 0.00 85 1014.4
20210917133117 39 49 0.0 0.0 0.00 0.00 0.00 86 1014.2
20210917131544 38 49 0.0 0.0 0.00 0.00 0.00 87 1013.8
20210917130022 38 49 0.0 0.0 0.00 0.00 0.00 87 1013.5
20210917124554 38 49 0.0 1.0 0.00 0.00 0.00 87 1013.2
20210917123021 38 37 2.0 7.0 0.00 0.00 0.00 87 1012.9
20210917121511 38 42 4.0 11.0 0.00 0.00 0.00 86 1012.5
20210917120016 38 46 5.0 10.0 0.00 0.00 0.00 85 1012.1
20210917114509 39 74 3.0 8.0 0.00 0.00 0.00 85 1012.0
20210917113130 39 19 3.0 8.0 0.00 0.00 0.00 84 1011.6
20210917111649 40 42 1.0 6.0 0.00 0.00 0.00 83 1011.2
20210917110125 41 55 4.0 9.0 0.00 0.00 0.00 82 1010.8
20210917104735 41 25 5.0 10.0 0.00 0.00 0.00 80 1010.4
20210917103147 43 32 6.0 11.0 0.00 0.00 0.00 78 1010.1
20210917101631 45 23 3.0 7.0 0.00 0.00 0.00 78 1009.9
20210917100043 45 32 0.0 6.0 0.00 0.00 0.00 77 1009.7
20210917094531 46 47 3.0 8.0 0.00 0.00 0.00 75 1009.4
20210917093027 48 34 3.0 12.0 0.00 0.00 0.00 73 1009.1
20210917091527 49 5 2.0 10.0 0.00 0.00 0.00 71 1008.8
20210917090025 50 45 6.0 13.0 0.00 0.00 0.00 69 1008.3
20210917084544 51 19 1.0 12.0 0.00 0.00 0.00 67 1008.0
20210917083016 51 360 4.0 14.0 0.00 0.00 0.00 66 1007.8
20210917081508 52 40 8.0 17.0 0.00 0.00 0.00 61 1007.1
20210917080003 53 328 8.0 18.0 0.00 0.00 0.00 58 1006.9
20210917074721 54 314 11.0 25.0 0.00 0.00 0.00 55 1006.7
20210917073105 55 10 1.0 20.0 0.00 0.00 0.00 51 1006.4
20210917071614 58 22 7.0 18.0 0.00 0.00 0.00 44 1006.2
20210917070154 61 5 0.0 16.0 0.00 0.00 0.00 35 1005.4
20210917064630 63 34 7.0 19.0 0.00 0.00 0.00 30 1004.8
20210917063038 65 34 4.0 8.0 0.00 0.00 0.00 17 1004.2
20210917061550 65 248 0.0 0.0 0.00 0.00 0.00 19 1003.7
20210917060036 66 295 0.0 0.0 0.00 0.00 0.00 17 1003.3
20210917054608 66 284 0.0 3.0 0.00 0.00 0.00 18 1002.8
20210917053108 66 238 0.0 7.0 0.00 0.00 0.00 20 1002.7
20210917051559 66 250 1.0 6.0 0.00 0.00 0.00 20 1002.6
20210917050056 66 245 0.0 5.0 0.00 0.00 0.00 20 1002.4
20210917044536 66 259 0.0 6.0 0.00 0.00 0.00 21 1002.2
20210917043039 66 246 3.0 7.0 0.00 0.00 0.00 22 1002.1
20210917041619 66 263 3.0 10.0 0.00 0.00 0.00 23 1001.8
20210917040028 65 233 2.0 7.0 0.00 0.00 0.00 22 1001.6
20210917034527 67 254 2.0 12.0 0.00 0.00 0.00 21 1001.4
20210917033101 69 269 3.0 10.0 0.00 0.00 0.00 20 1001.2
20210917031544 69 265 2.0 11.0 0.00 0.00 0.00 20 1001.1
20210917030033 69 260 3.0 7.0 0.00 0.00 0.00 20 1000.9
20210917024539 69 271 1.0 8.0 0.00 0.00 0.00 20 1000.8
20210917023044 69 279 1.0 6.0 0.00 0.00 0.00 19 1000.6
20210917021559 69 278 0.0 0.0 0.00 0.00 0.00 19 1000.3
20210917020025 68 309 0.0 0.0 0.00 0.00 0.00 19 1000.1
20210917014534 70 317 0.0 0.0 0.00 0.00 0.00 19 999.7
20210917013032 71 328 0.0 0.0 0.00 0.00 0.00 18 999.6
20210917011521 72 345 0.0 6.0 0.00 0.00 0.00 17 999.2
20210917010015 73 30 5.0 11.0 0.00 0.00 0.00 17 999.0
20210917004519 74 42 3.0 10.0 0.00 0.00 0.00 17 999.0
20210917003020 76 5 1.0 7.0 0.00 0.00 0.00 16 999.0
20210917001514 76 25 0.0 11.0 0.00 0.00 0.00 16 998.8
20210917000015 77 15 2.0 8.0 0.00 0.00 0.00 15 998.6
20210916234509 77 63 3.0 8.0 0.00 0.00 0.00 16 998.5
20210916233007 76 28 0.0 6.0 0.00 0.00 0.00 17 998.4
20210916231520 76 13 0.0 6.0 0.00 0.00 0.00 16 998.3